PWSweather.com
Personal Weather Stations
Station Observations
KCOGRAND2
Redlands, Southcamp Road & Dakota Circle, Grand Junction, CO 81507

Redlands, Southcamp Road & Dakota CircleGrand Junction, CO 81507

Lat: 39.055, Lon: -108.637

Elevation: 4870

Station Type: RadioShack WX200

Latest ConditionsUpdated 11:15:00 PM MDT Thursday, Jun 22, 2017
Currently Today's Max Today's Min Today's Average
Temperature 79.5°F26.4°C 101.7°F38.7°C 69.6°F20.9°C 84.3°F29.1°C
Dew Point -5537.2°C 0.0°F-17.8°C 0.0°F-17.8°C 0.0°F-17.8°C
Winds 3.0 mph E4.8 kmh E 21.0 mph ENE33.8 kmh ENE - 5.4 mph 8.7 kmh
Wind Gusts 4.9 mph7.9 kmh 31.8 mph51.2 kmh - -
Humidity - 0% 0% 0%
Pressure 24.98 in845.9 mb 24.98 in845.9 mb 24.89 in842.9 mb -
Hour Temp Dew Point Humidity Winds Wind Gusts Pressure Precip Precip Rate Daily Precip Total
11:15 PM 79.5°F26.4°C -5537.2°C - 3.0 mph E4.8 kmh E 4.9 mph7.9 kmh 24.98 in845.9 mb 0.00 in0.0 mm 0.00 in0.0 mm 0.00 in0.0 mm
11:10 PM 80.1°F26.7°C -5537.2°C - 3.0 mph E4.8 kmh E 5.8 mph9.3 kmh 24.98 in845.9 mb 0.00 in0.0 mm 0.00 in0.0 mm 0.00 in0.0 mm
11:05 PM 80.4°F26.9°C -5537.2°C - 3.0 mph E4.8 kmh E 4.9 mph7.9 kmh 24.98 in845.9 mb 0.00 in0.0 mm 0.00 in0.0 mm 0.00 in0.0 mm
10:59 PM 80.4°F26.9°C -5537.2°C - 2.0 mph E3.2 kmh E 6.3 mph10.1 kmh 24.98 in845.9 mb 0.00 in0.0 mm 0.00 in0.0 mm 0.00 in0.0 mm
10:54 PM 80.2°F26.8°C -5537.2°C - 1.0 mph E1.6 kmh E 3.6 mph5.8 kmh 24.98 in845.9 mb 0.00 in0.0 mm 0.00 in0.0 mm 0.00 in0.0 mm
10:49 PM 80.4°F26.9°C -5537.2°C - 2.0 mph E3.2 kmh E 3.6 mph5.8 kmh 24.98 in845.9 mb 0.00 in0.0 mm 0.00 in0.0 mm 0.00 in0.0 mm
10:44 PM 80.6°F27.0°C -5537.2°C - 4.0 mph E6.4 kmh E 5.8 mph9.3 kmh 24.98 in845.9 mb 0.00 in0.0 mm 0.00 in0.0 mm 0.00 in0.0 mm
10:39 PM 80.8°F27.1°C -5537.2°C - 5.0 mph E8.0 kmh E 6.3 mph10.1 kmh 24.95 in844.9 mb 0.00 in0.0 mm 0.00 in0.0 mm 0.00 in0.0 mm
10:34 PM 81.0°F27.2°C -5537.2°C - 6.0 mph E9.7 kmh E 6.9 mph11.1 kmh 24.95 in844.9 mb 0.00 in0.0 mm 0.00 in0.0 mm 0.00 in0.0 mm
10:29 PM 81.3°F27.4°C -5537.2°C - 6.0 mph E9.7 kmh E 9.2 mph14.8 kmh 24.95 in844.9 mb 0.00 in0.0 mm 0.00 in0.0 mm 0.00 in0.0 mm
10:24 PM 80.4°F26.9°C -5537.2°C - 4.0 mph E6.4 kmh E 10.1 mph16.3 kmh 24.95 in844.9 mb 0.00 in0.0 mm 0.00 in0.0 mm 0.00 in0.0 mm
10:19 PM 79.7°F26.5°C -5537.2°C - 2.0 mph E3.2 kmh E 4.9 mph7.9 kmh 24.95 in844.9 mb 0.00 in0.0 mm 0.00 in0.0 mm 0.00 in0.0 mm
10:14 PM 80.1°F26.7°C -5537.2°C - 4.0 mph E6.4 kmh E 5.8 mph9.3 kmh 24.95 in844.9 mb 0.00 in0.0 mm 0.00 in0.0 mm 0.00 in0.0 mm
10:09 PM 80.6°F27.0°C -5537.2°C - 4.0 mph E6.4 kmh E 6.7 mph10.8 kmh 24.95 in844.9 mb 0.00 in0.0 mm 0.00 in0.0 mm 0.00 in0.0 mm
10:04 PM 80.8°F27.1°C -5537.2°C - 4.0 mph E6.4 kmh E 6.3 mph10.1 kmh 24.95 in844.9 mb 0.00 in0.0 mm 0.00 in0.0 mm 0.00 in0.0 mm
09:59 PM 81.0°F27.2°C -5537.2°C - 4.0 mph E6.4 kmh E 9.2 mph14.8 kmh 24.95 in844.9 mb 0.00 in0.0 mm 0.00 in0.0 mm 0.00 in0.0 mm
09:54 PM 81.0°F27.2°C -5537.2°C - 2.0 mph E3.2 kmh E 7.4 mph11.9 kmh 24.92 in843.9 mb 0.00 in0.0 mm 0.00 in0.0 mm 0.00 in0.0 mm
09:49 PM 81.7°F27.6°C -5537.2°C - Calm Calm 4.5 mph7.2 kmh 24.92 in843.9 mb 0.00 in0.0 mm 0.00 in0.0 mm 0.00 in0.0 mm
09:44 PM 81.9°F27.7°C -5537.2°C - Calm Calm 2.7 mph4.3 kmh 24.92 in843.9 mb 0.00 in0.0 mm 0.00 in0.0 mm 0.00 in0.0 mm
09:39 PM 81.5°F27.5°C -5537.2°C - 2.0 mph E3.2 kmh E 4.5 mph7.2 kmh 24.92 in843.9 mb 0.00 in0.0 mm 0.00 in0.0 mm 0.00 in0.0 mm
09:34 PM 82.0°F27.8°C -5537.2°C - 1.0 mph E1.6 kmh E 4.5 mph7.2 kmh 24.92 in843.9 mb 0.00 in0.0 mm 0.00 in0.0 mm 0.00 in0.0 mm
09:29 PM 82.2°F27.9°C -5537.2°C - Calm Calm 3.6 mph5.8 kmh 24.92 in843.9 mb 0.00 in0.0 mm 0.00 in0.0 mm 0.00 in0.0 mm
09:24 PM 82.4°F28.0°C -5537.2°C - Calm Calm 2.7 mph4.3 kmh 24.92 in843.9 mb 0.00 in0.0 mm 0.00 in0.0 mm 0.00 in0.0 mm
09:19 PM 82.6°F28.1°C -5537.2°C - Calm Calm 3.1 mph5.0 kmh 24.92 in843.9 mb 0.00 in0.0 mm 0.00 in0.0 mm 0.00 in0.0 mm
09:14 PM 82.8°F28.2°C -5537.2°C - Calm Calm 3.1 mph5.0 kmh 24.92 in843.9 mb 0.00 in0.0 mm 0.00 in0.0 mm 0.00 in0.0 mm
09:09 PM 82.9°F28.3°C -5537.2°C - Calm Calm -- 24.92 in843.9 mb 0.00 in0.0 mm 0.00 in0.0 mm 0.00 in0.0 mm
09:04 PM 83.1°F28.4°C -5537.2°C - Calm Calm -- 24.92 in843.9 mb 0.00 in0.0 mm 0.00 in0.0 mm 0.00 in0.0 mm
08:59 PM 83.8°F28.8°C -5537.2°C - 1.0 mph E1.6 kmh E 2.7 mph4.3 kmh 24.92 in843.9 mb 0.00 in0.0 mm 0.00 in0.0 mm 0.00 in0.0 mm
08:54 PM 84.9°F29.4°C -5537.2°C - 2.0 mph E3.2 kmh E 3.6 mph5.8 kmh 24.89 in842.9 mb 0.00 in0.0 mm 0.00 in0.0 mm 0.00 in0.0 mm
08:49 PM 85.6°F29.8°C -5537.2°C - Calm Calm 3.1 mph5.0 kmh 24.89 in842.9 mb 0.00 in0.0 mm 0.00 in0.0 mm 0.00 in0.0 mm
08:44 PM 86.5°F30.3°C -5537.2°C - Calm Calm -- 24.89 in842.9 mb 0.00 in0.0 mm 0.00 in0.0 mm 0.00 in0.0 mm
08:39 PM 87.1°F30.6°C -5537.2°C - Calm Calm -- 24.89 in842.9 mb 0.00 in0.0 mm 0.00 in0.0 mm 0.00 in0.0 mm
08:34 PM 88.2°F31.2°C -5537.2°C - Calm Calm -- 24.89 in842.9 mb 0.00 in0.0 mm 0.00 in0.0 mm 0.00 in0.0 mm
08:29 PM 88.5°F31.4°C -5537.2°C - Calm Calm -- 24.89 in842.9 mb 0.00 in0.0 mm 0.00 in0.0 mm 0.00 in0.0 mm
08:24 PM 89.2°F31.8°C -5537.2°C - 1.0 mph E1.6 kmh E 3.6 mph5.8 kmh 24.89 in842.9 mb 0.00 in0.0 mm 0.00 in0.0 mm 0.00 in0.0 mm
08:19 PM 90.1°F32.3°C -5537.2°C - Calm Calm 3.6 mph5.8 kmh 24.89 in842.9 mb 0.00 in0.0 mm 0.00 in0.0 mm 0.00 in0.0 mm
08:14 PM 91.0°F32.8°C -5537.2°C - Calm Calm -- 24.89 in842.9 mb 0.00 in0.0 mm 0.00 in0.0 mm 0.00 in0.0 mm
08:09 PM 91.0°F32.8°C -5537.2°C - Calm Calm -- 24.89 in842.9 mb 0.00 in0.0 mm 0.00 in0.0 mm 0.00 in0.0 mm
08:04 PM 91.0°F32.8°C -5537.2°C - 2.0 mph E3.2 kmh E 3.6 mph5.8 kmh 24.89 in842.9 mb 0.00 in0.0 mm 0.00 in0.0 mm 0.00 in0.0 mm
07:59 PM 91.2°F32.9°C -5537.2°C - 2.0 mph E3.2 kmh E 4.9 mph7.9 kmh 24.89 in842.9 mb 0.00 in0.0 mm 0.00 in0.0 mm 0.00 in0.0 mm
07:54 PM 91.4°F33.0°C -5537.2°C - Calm Calm 3.1 mph5.0 kmh 24.89 in842.9 mb 0.00 in0.0 mm 0.00 in0.0 mm 0.00 in0.0 mm
07:49 PM 91.8°F33.2°C -5537.2°C - Calm Calm -- 24.89 in842.9 mb 0.00 in0.0 mm 0.00 in0.0 mm 0.00 in0.0 mm
07:44 PM 92.1°F33.4°C -5537.2°C - 1.0 mph ENE1.6 kmh ENE 3.1 mph5.0 kmh 24.89 in842.9 mb 0.00 in0.0 mm 0.00 in0.0 mm 0.00 in0.0 mm
07:39 PM 92.5°F33.6°C -5537.2°C - 2.0 mph ENE3.2 kmh ENE 4.0 mph6.4 kmh 24.89 in842.9 mb 0.00 in0.0 mm 0.00 in0.0 mm 0.00 in0.0 mm
07:34 PM 92.8°F33.8°C -5537.2°C - 4.0 mph ENE6.4 kmh ENE 4.9 mph7.9 kmh 24.89 in842.9 mb 0.00 in0.0 mm 0.00 in0.0 mm 0.00 in0.0 mm
07:29 PM 92.8°F33.8°C -5537.2°C - 4.0 mph ENE6.4 kmh ENE 5.8 mph9.3 kmh 24.89 in842.9 mb 0.00 in0.0 mm 0.00 in0.0 mm 0.00 in0.0 mm
07:24 PM 92.8°F33.8°C -5537.2°C - 4.0 mph ENE6.4 kmh ENE 5.4 mph8.7 kmh 24.89 in842.9 mb 0.00 in0.0 mm 0.00 in0.0 mm 0.00 in0.0 mm
07:19 PM 93.0°F33.9°C -5537.2°C - 5.0 mph ENE8.0 kmh ENE 6.7 mph10.8 kmh 24.89 in842.9 mb 0.00 in0.0 mm 0.00 in0.0 mm 0.00 in0.0 mm
07:08 PM 92.7°F33.7°C -5537.2°C - 6.0 mph E9.7 kmh E 8.7 mph14.0 kmh 24.89 in842.9 mb 0.00 in0.0 mm 0.00 in0.0 mm 0.00 in0.0 mm
07:03 PM 92.7°F33.7°C -5537.2°C - 7.0 mph E11.3 kmh E 9.6 mph15.4 kmh 24.89 in842.9 mb 0.00 in0.0 mm 0.00 in0.0 mm 0.00 in0.0 mm
06:58 PM 92.1°F33.4°C -5537.2°C - 8.0 mph ENE12.9 kmh ENE 11.2 mph18.0 kmh 24.89 in842.9 mb 0.00 in0.0 mm 0.00 in0.0 mm 0.00 in0.0 mm
06:52 PM 92.8°F33.8°C -5537.2°C - 8.0 mph ENE12.9 kmh ENE 12.5 mph20.1 kmh 24.89 in842.9 mb 0.00 in0.0 mm 0.00 in0.0 mm 0.00 in0.0 mm
06:47 PM 94.5°F34.7°C -5537.2°C - 7.0 mph ENE11.3 kmh ENE 11.0 mph17.7 kmh 24.89 in842.9 mb 0.00 in0.0 mm 0.00 in0.0 mm 0.00 in0.0 mm
06:42 PM 93.7°F34.3°C -5537.2°C - 8.0 mph ENE12.9 kmh ENE 9.6 mph15.4 kmh 24.89 in842.9 mb 0.00 in0.0 mm 0.00 in0.0 mm 0.00 in0.0 mm
06:37 PM 93.4°F34.1°C -5537.2°C - 8.0 mph ENE12.9 kmh ENE 12.5 mph20.1 kmh 24.89 in842.9 mb 0.00 in0.0 mm 0.00 in0.0 mm 0.00 in0.0 mm
06:31 PM 94.3°F34.6°C -5537.2°C - 9.0 mph E14.5 kmh E 10.5 mph16.9 kmh 24.89 in842.9 mb 0.00 in0.0 mm 0.00 in0.0 mm 0.00 in0.0 mm
06:26 PM 94.3°F34.6°C -5537.2°C - 10.0 mph E16.1 kmh E 15.4 mph24.8 kmh 24.89 in842.9 mb 0.00 in0.0 mm 0.00 in0.0 mm 0.00 in0.0 mm
06:21 PM 92.5°F33.6°C -5537.2°C - 6.0 mph E9.7 kmh E 14.8 mph23.8 kmh 24.89 in842.9 mb 0.00 in0.0 mm 0.00 in0.0 mm 0.00 in0.0 mm
06:16 PM 92.3°F33.5°C -5537.2°C - 4.0 mph E6.4 kmh E 8.3 mph13.4 kmh 24.89 in842.9 mb 0.00 in0.0 mm 0.00 in0.0 mm 0.00 in0.0 mm
06:10 PM 92.3°F33.5°C -5537.2°C - 7.0 mph E11.3 kmh E 13.0 mph20.9 kmh 24.89 in842.9 mb 0.00 in0.0 mm 0.00 in0.0 mm 0.00 in0.0 mm
06:05 PM 92.3°F33.5°C -5537.2°C - 12.0 mph E19.3 kmh E 16.8 mph27.0 kmh 24.89 in842.9 mb 0.00 in0.0 mm 0.00 in0.0 mm 0.00 in0.0 mm
06:00 PM 92.1°F33.4°C -5537.2°C - 13.0 mph E20.9 kmh E 31.3 mph50.4 kmh 24.89 in842.9 mb 0.00 in0.0 mm 0.00 in0.0 mm 0.00 in0.0 mm
05:55 PM 91.6°F33.1°C -5537.2°C - 8.0 mph E12.9 kmh E 22.8 mph36.7 kmh 24.92 in843.9 mb 0.00 in0.0 mm 0.00 in0.0 mm 0.00 in0.0 mm
05:49 PM 91.2°F32.9°C -5537.2°C - 6.0 mph E9.7 kmh E 10.1 mph16.3 kmh 24.92 in843.9 mb 0.00 in0.0 mm 0.00 in0.0 mm 0.00 in0.0 mm
05:44 PM 91.6°F33.1°C -5537.2°C - 6.0 mph E9.7 kmh E 11.2 mph18.0 kmh 24.92 in843.9 mb 0.00 in0.0 mm 0.00 in0.0 mm 0.00 in0.0 mm
05:39 PM 92.1°F33.4°C -5537.2°C - 6.0 mph E9.7 kmh E 10.5 mph16.9 kmh 24.89 in842.9 mb 0.00 in0.0 mm 0.00 in0.0 mm 0.00 in0.0 mm
05:34 PM 92.5°F33.6°C -5537.2°C - 7.0 mph ENE11.3 kmh ENE 10.5 mph16.9 kmh 24.89 in842.9 mb 0.00 in0.0 mm 0.00 in0.0 mm 0.00 in0.0 mm
05:28 PM 92.8°F33.8°C -5537.2°C - 8.0 mph ENE12.9 kmh ENE 13.0 mph20.9 kmh 24.89 in842.9 mb 0.00 in0.0 mm 0.00 in0.0 mm 0.00 in0.0 mm
05:23 PM 93.6°F34.2°C -5537.2°C - 10.0 mph E16.1 kmh E 18.6 mph29.9 kmh 24.92 in843.9 mb 0.00 in0.0 mm 0.00 in0.0 mm 0.00 in0.0 mm
05:18 PM 92.5°F33.6°C -5537.2°C - 8.0 mph E12.9 kmh E 15.9 mph25.6 kmh 24.92 in843.9 mb 0.00 in0.0 mm 0.00 in0.0 mm 0.00 in0.0 mm
05:13 PM 91.4°F33.0°C -5537.2°C - 9.0 mph E14.5 kmh E 13.0 mph20.9 kmh 24.92 in843.9 mb 0.00 in0.0 mm 0.00 in0.0 mm 0.00 in0.0 mm
05:07 PM 90.9°F32.7°C -5537.2°C - 12.0 mph E19.3 kmh E 16.8 mph27.0 kmh 24.92 in843.9 mb 0.00 in0.0 mm 0.00 in0.0 mm 0.00 in0.0 mm
05:02 PM 91.8°F33.2°C -5537.2°C - 13.0 mph E20.9 kmh E 18.6 mph29.9 kmh 24.92 in843.9 mb 0.00 in0.0 mm 0.00 in0.0 mm 0.00 in0.0 mm
04:57 PM 92.8°F33.8°C -5537.2°C - 13.0 mph ENE20.9 kmh ENE 18.1 mph29.1 kmh 24.92 in843.9 mb 0.00 in0.0 mm 0.00 in0.0 mm 0.00 in0.0 mm
04:52 PM 94.8°F34.9°C -5537.2°C - 15.0 mph ENE24.1 kmh ENE 22.8 mph36.7 kmh 24.92 in843.9 mb 0.00 in0.0 mm 0.00 in0.0 mm 0.00 in0.0 mm
04:46 PM 93.9°F34.4°C -5537.2°C - 17.0 mph ENE27.4 kmh ENE 22.4 mph36.0 kmh 24.92 in843.9 mb 0.00 in0.0 mm 0.00 in0.0 mm 0.00 in0.0 mm
04:41 PM 94.3°F34.6°C -5537.2°C - 17.0 mph E27.4 kmh E 26.2 mph42.2 kmh 24.92 in843.9 mb 0.00 in0.0 mm 0.00 in0.0 mm 0.00 in0.0 mm
04:36 PM 94.1°F34.5°C -5537.2°C - 16.0 mph E25.7 kmh E 26.6 mph42.8 kmh 24.92 in843.9 mb 0.00 in0.0 mm 0.00 in0.0 mm 0.00 in0.0 mm
04:30 PM 93.7°F34.3°C -5537.2°C - 14.0 mph E22.5 kmh E 23.3 mph37.5 kmh 24.92 in843.9 mb 0.00 in0.0 mm 0.00 in0.0 mm 0.00 in0.0 mm
04:25 PM 92.7°F33.7°C -5537.2°C - 12.0 mph E19.3 kmh E 19.5 mph31.4 kmh 24.92 in843.9 mb 0.00 in0.0 mm 0.00 in0.0 mm 0.00 in0.0 mm
04:20 PM 92.5°F33.6°C -5537.2°C - 13.0 mph E20.9 kmh E 15.9 mph25.6 kmh 24.89 in842.9 mb 0.00 in0.0 mm 0.00 in0.0 mm 0.00 in0.0 mm
04:15 PM 92.1°F33.4°C -5537.2°C - 13.0 mph E20.9 kmh E 21.0 mph33.8 kmh 24.89 in842.9 mb 0.00 in0.0 mm 0.00 in0.0 mm 0.00 in0.0 mm
04:09 PM 93.0°F33.9°C -5537.2°C - 13.0 mph E20.9 kmh E 19.0 mph30.6 kmh 24.89 in842.9 mb 0.00 in0.0 mm 0.00 in0.0 mm 0.00 in0.0 mm
04:04 PM 93.4°F34.1°C -5537.2°C - 15.0 mph E24.1 kmh E 20.6 mph33.2 kmh 24.89 in842.9 mb 0.00 in0.0 mm 0.00 in0.0 mm 0.00 in0.0 mm
03:59 PM 93.9°F34.4°C -5537.2°C - 15.0 mph E24.1 kmh E 23.7 mph38.1 kmh 24.89 in842.9 mb 0.00 in0.0 mm 0.00 in0.0 mm 0.00 in0.0 mm
03:54 PM 93.7°F34.3°C -5537.2°C - 15.0 mph E24.1 kmh E 24.2 mph38.9 kmh 24.92 in843.9 mb 0.00 in0.0 mm 0.00 in0.0 mm 0.00 in0.0 mm
03:49 PM 95.4°F35.2°C -5537.2°C - 16.0 mph E25.7 kmh E 22.4 mph36.0 kmh 24.92 in843.9 mb 0.00 in0.0 mm 0.00 in0.0 mm 0.00 in0.0 mm
03:44 PM 94.5°F34.7°C -5537.2°C - 19.0 mph E30.6 kmh E 24.4 mph39.3 kmh 24.92 in843.9 mb 0.00 in0.0 mm 0.00 in0.0 mm 0.00 in0.0 mm
03:39 PM 93.0°F33.9°C -5537.2°C - 21.0 mph ENE33.8 kmh ENE 29.5 mph47.5 kmh 24.89 in842.9 mb 0.00 in0.0 mm 0.00 in0.0 mm 0.00 in0.0 mm
03:34 PM 94.5°F34.7°C -5537.2°C - 20.0 mph ENE32.2 kmh ENE 31.8 mph51.2 kmh 24.89 in842.9 mb 0.00 in0.0 mm 0.00 in0.0 mm 0.00 in0.0 mm
03:29 PM 95.5°F35.3°C -5537.2°C - 18.0 mph ENE29.0 kmh ENE 30.0 mph48.3 kmh 24.89 in842.9 mb 0.00 in0.0 mm 0.00 in0.0 mm 0.00 in0.0 mm
03:24 PM 96.8°F36.0°C -5537.2°C - 15.0 mph ENE24.1 kmh ENE 26.2 mph42.2 kmh 24.89 in842.9 mb 0.00 in0.0 mm 0.00 in0.0 mm 0.00 in0.0 mm
03:19 PM 96.6°F35.9°C -5537.2°C - 14.0 mph ENE22.5 kmh ENE 20.1 mph32.3 kmh 24.89 in842.9 mb 0.00 in0.0 mm 0.00 in0.0 mm 0.00 in0.0 mm
03:14 PM 94.3°F34.6°C -5537.2°C - 14.0 mph ENE22.5 kmh ENE 21.9 mph35.2 kmh 24.89 in842.9 mb 0.00 in0.0 mm 0.00 in0.0 mm 0.00 in0.0 mm
03:09 PM 97.0°F36.1°C -5537.2°C - 15.0 mph ENE24.1 kmh ENE 21.9 mph35.2 kmh 24.89 in842.9 mb 0.00 in0.0 mm 0.00 in0.0 mm 0.00 in0.0 mm
03:04 PM 97.5°F36.4°C -5537.2°C - 13.0 mph ENE20.9 kmh ENE 28.4 mph45.7 kmh 24.89 in842.9 mb 0.00 in0.0 mm 0.00 in0.0 mm 0.00 in0.0 mm
02:59 PM 99.1°F37.3°C -5537.2°C - 10.0 mph ENE16.1 kmh ENE 28.4 mph45.7 kmh 24.89 in842.9 mb 0.00 in0.0 mm 0.00 in0.0 mm 0.00 in0.0 mm
02:54 PM 99.1°F37.3°C -5537.2°C - 9.0 mph ENE14.5 kmh ENE 15.2 mph24.5 kmh 24.89 in842.9 mb 0.00 in0.0 mm 0.00 in0.0 mm 0.00 in0.0 mm
02:49 PM 99.7°F37.6°C -5537.2°C - 9.0 mph ENE14.5 kmh ENE 14.8 mph23.8 kmh 24.89 in842.9 mb 0.00 in0.0 mm 0.00 in0.0 mm 0.00 in0.0 mm
02:44 PM 99.3°F37.4°C -5537.2°C - 10.0 mph ENE16.1 kmh ENE 14.8 mph23.8 kmh 24.89 in842.9 mb 0.00 in0.0 mm 0.00 in0.0 mm 0.00 in0.0 mm
02:39 PM 101.7°F38.7°C -5537.2°C - 9.0 mph ENE14.5 kmh ENE 15.2 mph24.5 kmh 24.89 in842.9 mb 0.00 in0.0 mm 0.00 in0.0 mm 0.00 in0.0 mm
02:34 PM 99.9°F37.7°C -5537.2°C - 7.0 mph ENE11.3 kmh ENE 16.8 mph27.0 kmh 24.89 in842.9 mb 0.00 in0.0 mm 0.00 in0.0 mm 0.00 in0.0 mm
02:29 PM 98.1°F36.7°C -5537.2°C - 5.0 mph ENE8.0 kmh ENE 10.1 mph16.3 kmh 24.89 in842.9 mb 0.00 in0.0 mm 0.00 in0.0 mm 0.00 in0.0 mm
02:24 PM 96.6°F35.9°C -5537.2°C - 8.0 mph ENE12.9 kmh ENE 10.1 mph16.3 kmh 24.89 in842.9 mb 0.00 in0.0 mm 0.00 in0.0 mm 0.00 in0.0 mm
02:19 PM 96.1°F35.6°C -5537.2°C - 8.0 mph ENE12.9 kmh ENE 13.9 mph22.4 kmh 24.89 in842.9 mb 0.00 in0.0 mm 0.00 in0.0 mm 0.00 in0.0 mm
02:14 PM 97.7°F36.5°C -5537.2°C - 6.0 mph ENE9.7 kmh ENE 12.1 mph19.5 kmh 24.89 in842.9 mb 0.00 in0.0 mm 0.00 in0.0 mm 0.00 in0.0 mm
02:09 PM 96.6°F35.9°C -5537.2°C - 10.0 mph ENE16.1 kmh ENE 13.9 mph22.4 kmh 24.89 in842.9 mb 0.00 in0.0 mm 0.00 in0.0 mm 0.00 in0.0 mm
02:04 PM 97.7°F36.5°C -5537.2°C - 12.0 mph ENE19.3 kmh ENE 18.6 mph29.9 kmh 24.89 in842.9 mb 0.00 in0.0 mm 0.00 in0.0 mm 0.00 in0.0 mm
01:59 PM 99.9°F37.7°C -5537.2°C - 11.0 mph ENE17.7 kmh ENE 18.1 mph29.1 kmh 24.89 in842.9 mb 0.00 in0.0 mm 0.00 in0.0 mm 0.00 in0.0 mm
01:54 PM 99.1°F37.3°C -5537.2°C - 10.0 mph ENE16.1 kmh ENE 16.8 mph27.0 kmh 24.89 in842.9 mb 0.00 in0.0 mm 0.00 in0.0 mm 0.00 in0.0 mm
01:49 PM 99.1°F37.3°C -5537.2°C - 10.0 mph ENE16.1 kmh ENE 15.2 mph24.5 kmh 24.89 in842.9 mb 0.00 in0.0 mm 0.00 in0.0 mm 0.00 in0.0 mm
01:44 PM 97.3°F36.3°C -5537.2°C - 10.0 mph ENE16.1 kmh ENE 16.3 mph26.2 kmh 24.89 in842.9 mb 0.00 in0.0 mm 0.00 in0.0 mm 0.00 in0.0 mm
01:39 PM 96.1°F35.6°C -5537.2°C - 9.0 mph ENE14.5 kmh ENE 15.4 mph24.8 kmh 24.92 in843.9 mb 0.00 in0.0 mm 0.00 in0.0 mm 0.00 in0.0 mm
01:34 PM 96.8°F36.0°C -5537.2°C - 8.0 mph ENE12.9 kmh ENE 13.0 mph20.9 kmh 24.92 in843.9 mb 0.00 in0.0 mm 0.00 in0.0 mm 0.00 in0.0 mm
01:29 PM 96.6°F35.9°C -5537.2°C - 7.0 mph ENE11.3 kmh ENE 11.2 mph18.0 kmh 24.92 in843.9 mb 0.00 in0.0 mm 0.00 in0.0 mm 0.00 in0.0 mm
01:24 PM 95.5°F35.3°C -5537.2°C - 7.0 mph ENE11.3 kmh ENE 12.5 mph20.1 kmh 24.92 in843.9 mb 0.00 in0.0 mm 0.00 in0.0 mm 0.00 in0.0 mm
01:19 PM 94.3°F34.6°C -5537.2°C - 7.0 mph ENE11.3 kmh ENE 12.1 mph19.5 kmh 24.92 in843.9 mb 0.00 in0.0 mm 0.00 in0.0 mm 0.00 in0.0 mm
01:14 PM 95.0°F35.0°C -5537.2°C - 6.0 mph ENE9.7 kmh ENE 13.4 mph21.6 kmh 24.92 in843.9 mb 0.00 in0.0 mm 0.00 in0.0 mm 0.00 in0.0 mm
01:09 PM 94.8°F34.9°C -5537.2°C - 6.0 mph ENE9.7 kmh ENE 11.2 mph18.0 kmh 24.92 in843.9 mb 0.00 in0.0 mm 0.00 in0.0 mm 0.00 in0.0 mm
01:04 PM 94.6°F34.8°C -5537.2°C - 7.0 mph ENE11.3 kmh ENE 12.1 mph19.5 kmh 24.92 in843.9 mb 0.00 in0.0 mm 0.00 in0.0 mm 0.00 in0.0 mm
12:59 PM 93.4°F34.1°C -5537.2°C - 7.0 mph ENE11.3 kmh ENE 13.4 mph21.6 kmh 24.92 in843.9 mb 0.00 in0.0 mm 0.00 in0.0 mm 0.00 in0.0 mm
12:54 PM 93.2°F34.0°C -5537.2°C - 8.0 mph ENE12.9 kmh ENE 14.3 mph23.0 kmh 24.92 in843.9 mb 0.00 in0.0 mm 0.00 in0.0 mm 0.00 in0.0 mm
12:49 PM 92.8°F33.8°C -5537.2°C - 8.0 mph ENE12.9 kmh ENE 12.5 mph20.1 kmh 24.92 in843.9 mb 0.00 in0.0 mm 0.00 in0.0 mm 0.00 in0.0 mm
12:44 PM 92.1°F33.4°C -5537.2°C - 7.0 mph ENE11.3 kmh ENE 10.5 mph16.9 kmh 24.92 in843.9 mb 0.00 in0.0 mm 0.00 in0.0 mm 0.00 in0.0 mm
12:39 PM 91.6°F33.1°C -5537.2°C - 8.0 mph ENE12.9 kmh ENE 11.2 mph18.0 kmh 24.95 in844.9 mb 0.00 in0.0 mm 0.00 in0.0 mm 0.00 in0.0 mm
12:34 PM 92.3°F33.5°C -5537.2°C - 8.0 mph ENE12.9 kmh ENE 13.0 mph20.9 kmh 24.95 in844.9 mb 0.00 in0.0 mm 0.00 in0.0 mm 0.00 in0.0 mm
12:29 PM 92.7°F33.7°C -5537.2°C - 7.0 mph ENE11.3 kmh ENE 10.1 mph16.3 kmh 24.95 in844.9 mb 0.00 in0.0 mm 0.00 in0.0 mm 0.00 in0.0 mm
12:24 PM 93.2°F34.0°C -5537.2°C - 6.0 mph ENE9.7 kmh ENE 11.6 mph18.7 kmh 24.95 in844.9 mb 0.00 in0.0 mm 0.00 in0.0 mm 0.00 in0.0 mm
12:19 PM 91.9°F33.3°C -5537.2°C - 4.0 mph ENE6.4 kmh ENE 6.9 mph11.1 kmh 24.95 in844.9 mb 0.00 in0.0 mm 0.00 in0.0 mm 0.00 in0.0 mm
12:14 PM 91.8°F33.2°C -5537.2°C - 4.0 mph ENE6.4 kmh ENE 7.4 mph11.9 kmh 24.95 in844.9 mb 0.00 in0.0 mm 0.00 in0.0 mm 0.00 in0.0 mm
12:09 PM 91.8°F33.2°C -5537.2°C - 4.0 mph ENE6.4 kmh ENE 9.2 mph14.8 kmh 24.95 in844.9 mb 0.00 in0.0 mm 0.00 in0.0 mm 0.00 in0.0 mm
12:04 PM 92.7°F33.7°C -5537.2°C - 5.0 mph ENE8.0 kmh ENE 9.2 mph14.8 kmh 24.95 in844.9 mb 0.00 in0.0 mm 0.00 in0.0 mm 0.00 in0.0 mm
11:59 AM 91.6°F33.1°C -5537.2°C - 5.0 mph ENE8.0 kmh ENE 9.6 mph15.4 kmh 24.95 in844.9 mb 0.00 in0.0 mm 0.00 in0.0 mm 0.00 in0.0 mm
11:54 AM 91.2°F32.9°C -5537.2°C - 5.0 mph ENE8.0 kmh ENE 10.5 mph16.9 kmh 24.95 in844.9 mb 0.00 in0.0 mm 0.00 in0.0 mm 0.00 in0.0 mm
11:49 AM 91.2°F32.9°C -5537.2°C - 4.0 mph ENE6.4 kmh ENE 8.3 mph13.4 kmh 24.95 in844.9 mb 0.00 in0.0 mm 0.00 in0.0 mm 0.00 in0.0 mm
11:44 AM 91.0°F32.8°C -5537.2°C - 4.0 mph ENE6.4 kmh ENE 7.8 mph12.6 kmh 24.95 in844.9 mb 0.00 in0.0 mm 0.00 in0.0 mm 0.00 in0.0 mm
11:39 AM 90.5°F32.5°C -5537.2°C - 4.0 mph ENE6.4 kmh ENE 6.9 mph11.1 kmh 24.95 in844.9 mb 0.00 in0.0 mm 0.00 in0.0 mm 0.00 in0.0 mm
11:34 AM 90.5°F32.5°C -5537.2°C - 4.0 mph ENE6.4 kmh ENE 8.3 mph13.4 kmh 24.95 in844.9 mb 0.00 in0.0 mm 0.00 in0.0 mm 0.00 in0.0 mm
11:28 AM 89.2°F31.8°C -5537.2°C - 4.0 mph ENE6.4 kmh ENE 8.3 mph13.4 kmh 24.95 in844.9 mb 0.00 in0.0 mm 0.00 in0.0 mm 0.00 in0.0 mm
11:23 AM 89.1°F31.7°C -5537.2°C - 5.0 mph ENE8.0 kmh ENE 6.7 mph10.8 kmh 24.95 in844.9 mb 0.00 in0.0 mm 0.00 in0.0 mm 0.00 in0.0 mm
11:18 AM 88.9°F31.6°C -5537.2°C - 4.0 mph ENE6.4 kmh ENE 7.4 mph11.9 kmh 24.95 in844.9 mb 0.00 in0.0 mm 0.00 in0.0 mm 0.00 in0.0 mm
11:13 AM 88.5°F31.4°C -5537.2°C - 4.0 mph ENE6.4 kmh ENE 8.3 mph13.4 kmh 24.95 in844.9 mb 0.00 in0.0 mm 0.00 in0.0 mm 0.00 in0.0 mm
11:08 AM 86.7°F30.4°C -5537.2°C - 5.0 mph ENE8.0 kmh ENE 7.8 mph12.6 kmh 24.95 in844.9 mb 0.00 in0.0 mm 0.00 in0.0 mm 0.00 in0.0 mm
11:03 AM 86.5°F30.3°C -5537.2°C - 6.0 mph ENE9.7 kmh ENE 9.6 mph15.4 kmh 24.95 in844.9 mb 0.00 in0.0 mm 0.00 in0.0 mm 0.00 in0.0 mm
10:58 AM 86.5°F30.3°C -5537.2°C - 5.0 mph ENE8.0 kmh ENE 9.6 mph15.4 kmh 24.95 in844.9 mb 0.00 in0.0 mm 0.00 in0.0 mm 0.00 in0.0 mm
10:53 AM 86.2°F30.1°C -5537.2°C - 5.0 mph ENE8.0 kmh ENE 7.8 mph12.6 kmh 24.95 in844.9 mb 0.00 in0.0 mm 0.00 in0.0 mm 0.00 in0.0 mm
10:48 AM 86.0°F30.0°C -5537.2°C - 5.0 mph ENE8.0 kmh ENE 7.4 mph11.9 kmh 24.95 in844.9 mb 0.00 in0.0 mm 0.00 in0.0 mm 0.00 in0.0 mm
10:43 AM 86.2°F30.1°C -5537.2°C - 5.0 mph ENE8.0 kmh ENE 8.3 mph13.4 kmh 24.95 in844.9 mb 0.00 in0.0 mm 0.00 in0.0 mm 0.00 in0.0 mm
10:38 AM 85.5°F29.7°C -5537.2°C - 5.0 mph ENE8.0 kmh ENE 8.7 mph14.0 kmh 24.98 in845.9 mb 0.00 in0.0 mm 0.00 in0.0 mm 0.00 in0.0 mm
10:33 AM 85.3°F29.6°C -5537.2°C - 5.0 mph E8.0 kmh E 8.3 mph13.4 kmh 24.98 in845.9 mb 0.00 in0.0 mm 0.00 in0.0 mm 0.00 in0.0 mm
10:28 AM 84.7°F29.3°C -5537.2°C - 4.0 mph E6.4 kmh E 7.8 mph12.6 kmh 24.98 in845.9 mb 0.00 in0.0 mm 0.00 in0.0 mm 0.00 in0.0 mm
10:23 AM 84.0°F28.9°C -5537.2°C - 5.0 mph E8.0 kmh E 7.8 mph12.6 kmh 24.98 in845.9 mb 0.00 in0.0 mm 0.00 in0.0 mm 0.00 in0.0 mm
10:18 AM 83.7°F28.7°C -5537.2°C - 6.0 mph E9.7 kmh E 9.2 mph14.8 kmh 24.98 in845.9 mb 0.00 in0.0 mm 0.00 in0.0 mm 0.00 in0.0 mm
10:13 AM 82.4°F28.0°C -5537.2°C - 6.0 mph E9.7 kmh E 10.1 mph16.3 kmh 24.98 in845.9 mb 0.00 in0.0 mm 0.00 in0.0 mm 0.00 in0.0 mm
10:08 AM 82.2°F27.9°C -5537.2°C - 6.0 mph E9.7 kmh E 9.2 mph14.8 kmh 24.98 in845.9 mb 0.00 in0.0 mm 0.00 in0.0 mm 0.00 in0.0 mm
10:03 AM 82.0°F27.8°C -5537.2°C - 6.0 mph E9.7 kmh E 10.1 mph16.3 kmh 24.98 in845.9 mb 0.00 in0.0 mm 0.00 in0.0 mm 0.00 in0.0 mm
09:58 AM 81.7°F27.6°C -5537.2°C - 6.0 mph E9.7 kmh E 7.8 mph12.6 kmh 24.98 in845.9 mb 0.00 in0.0 mm 0.00 in0.0 mm 0.00 in0.0 mm
09:53 AM 80.8°F27.1°C -5537.2°C - 7.0 mph E11.3 kmh E 10.1 mph16.3 kmh 24.98 in845.9 mb 0.00 in0.0 mm 0.00 in0.0 mm 0.00 in0.0 mm
09:48 AM 80.8°F27.1°C -5537.2°C - 6.0 mph E9.7 kmh E 9.6 mph15.4 kmh 24.98 in845.9 mb 0.00 in0.0 mm 0.00 in0.0 mm 0.00 in0.0 mm
09:43 AM 80.6°F27.0°C -5537.2°C - 6.0 mph E9.7 kmh E 9.2 mph14.8 kmh 24.98 in845.9 mb 0.00 in0.0 mm 0.00 in0.0 mm 0.00 in0.0 mm
09:38 AM 80.4°F26.9°C -5537.2°C - 8.0 mph E12.9 kmh E 10.5 mph16.9 kmh 24.98 in845.9 mb 0.00 in0.0 mm 0.00 in0.0 mm 0.00 in0.0 mm
09:33 AM 80.2°F26.8°C -5537.2°C - 8.0 mph E12.9 kmh E 12.1 mph19.5 kmh 24.98 in845.9 mb 0.00 in0.0 mm 0.00 in0.0 mm 0.00 in0.0 mm
09:28 AM 80.2°F26.8°C -5537.2°C - 7.0 mph E11.3 kmh E 11.6 mph18.7 kmh 24.98 in845.9 mb 0.00 in0.0 mm 0.00 in0.0 mm 0.00 in0.0 mm
09:23 AM 79.9°F26.6°C -5537.2°C - 7.0 mph E11.3 kmh E 10.5 mph16.9 kmh 24.98 in845.9 mb 0.00 in0.0 mm 0.00 in0.0 mm 0.00 in0.0 mm
09:18 AM 79.3°F26.3°C -5537.2°C - 7.0 mph E11.3 kmh E 11.2 mph18.0 kmh 24.98 in845.9 mb 0.00 in0.0 mm 0.00 in0.0 mm 0.00 in0.0 mm
09:13 AM 78.6°F25.9°C -5537.2°C - 7.0 mph E11.3 kmh E 10.1 mph16.3 kmh 24.98 in845.9 mb 0.00 in0.0 mm 0.00 in0.0 mm 0.00 in0.0 mm
09:08 AM 78.4°F25.8°C -5537.2°C - 5.0 mph E8.0 kmh E 11.0 mph17.7 kmh 24.98 in845.9 mb 0.00 in0.0 mm 0.00 in0.0 mm 0.00 in0.0 mm
09:03 AM 77.7°F25.4°C -5537.2°C - 5.0 mph E8.0 kmh E 6.9 mph11.1 kmh 24.98 in845.9 mb 0.00 in0.0 mm 0.00 in0.0 mm 0.00 in0.0 mm
08:58 AM 77.0°F25.0°C -5537.2°C - 5.0 mph E8.0 kmh E 7.8 mph12.6 kmh 24.98 in845.9 mb 0.00 in0.0 mm 0.00 in0.0 mm 0.00 in0.0 mm
08:53 AM 77.2°F25.1°C -5537.2°C - 4.0 mph E6.4 kmh E 6.7 mph10.8 kmh 24.98 in845.9 mb 0.00 in0.0 mm 0.00 in0.0 mm 0.00 in0.0 mm
08:48 AM 77.0°F25.0°C -5537.2°C - 3.0 mph E4.8 kmh E 5.8 mph9.3 kmh 24.98 in845.9 mb 0.00 in0.0 mm 0.00 in0.0 mm 0.00 in0.0 mm
08:43 AM 76.6°F24.8°C -5537.2°C - 2.0 mph E3.2 kmh E 4.9 mph7.9 kmh 24.98 in845.9 mb 0.00 in0.0 mm 0.00 in0.0 mm 0.00 in0.0 mm
08:38 AM 76.6°F24.8°C -5537.2°C - Calm Calm 4.0 mph6.4 kmh 24.98 in845.9 mb 0.00 in0.0 mm 0.00 in0.0 mm 0.00 in0.0 mm
08:33 AM 76.5°F24.7°C -5537.2°C - 1.0 mph E1.6 kmh E 4.0 mph6.4 kmh 24.98 in845.9 mb 0.00 in0.0 mm 0.00 in0.0 mm 0.00 in0.0 mm
08:28 AM 76.3°F24.6°C -5537.2°C - 1.0 mph E1.6 kmh E 4.0 mph6.4 kmh 24.98 in845.9 mb 0.00 in0.0 mm 0.00 in0.0 mm 0.00 in0.0 mm
08:23 AM 75.9°F24.4°C -5537.2°C - 2.0 mph E3.2 kmh E 3.6 mph5.8 kmh 24.95 in844.9 mb 0.00 in0.0 mm 0.00 in0.0 mm 0.00 in0.0 mm
08:18 AM 75.2°F24.0°C -5537.2°C - 3.0 mph E4.8 kmh E 4.9 mph7.9 kmh 24.95 in844.9 mb 0.00 in0.0 mm 0.00 in0.0 mm 0.00 in0.0 mm
08:13 AM 75.2°F24.0°C -5537.2°C - 3.0 mph E4.8 kmh E 5.4 mph8.7 kmh 24.95 in844.9 mb 0.00 in0.0 mm 0.00 in0.0 mm 0.00 in0.0 mm
08:08 AM 75.2°F24.0°C -5537.2°C - 3.0 mph E4.8 kmh E 4.5 mph7.2 kmh 24.95 in844.9 mb 0.00 in0.0 mm 0.00 in0.0 mm 0.00 in0.0 mm
08:03 AM 75.0°F23.9°C -5537.2°C - 3.0 mph E4.8 kmh E 6.3 mph10.1 kmh 24.95 in844.9 mb 0.00 in0.0 mm 0.00 in0.0 mm 0.00 in0.0 mm
07:58 AM 75.0°F23.9°C -5537.2°C - 2.0 mph E3.2 kmh E 4.5 mph7.2 kmh 24.95 in844.9 mb 0.00 in0.0 mm 0.00 in0.0 mm 0.00 in0.0 mm
07:53 AM 75.4°F24.1°C -5537.2°C - 2.0 mph E3.2 kmh E 6.7 mph10.8 kmh 24.95 in844.9 mb 0.00 in0.0 mm 0.00 in0.0 mm 0.00 in0.0 mm
07:48 AM 75.2°F24.0°C -5537.2°C - 3.0 mph E4.8 kmh E 5.8 mph9.3 kmh 24.95 in844.9 mb 0.00 in0.0 mm 0.00 in0.0 mm 0.00 in0.0 mm
07:43 AM 75.4°F24.1°C -5537.2°C - 4.0 mph E6.4 kmh E 5.8 mph9.3 kmh 24.95 in844.9 mb 0.00 in0.0 mm 0.00 in0.0 mm 0.00 in0.0 mm
07:38 AM 75.2°F24.0°C -5537.2°C - 5.0 mph E8.0 kmh E 6.7 mph10.8 kmh 24.95 in844.9 mb 0.00 in0.0 mm 0.00 in0.0 mm 0.00 in0.0 mm
07:33 AM 75.2°F24.0°C -5537.2°C - 5.0 mph E8.0 kmh E 9.2 mph14.8 kmh 24.95 in844.9 mb 0.00 in0.0 mm 0.00 in0.0 mm 0.00 in0.0 mm
07:28 AM 75.2°F24.0°C -5537.2°C - 6.0 mph E9.7 kmh E 8.3 mph13.4 kmh 24.95 in844.9 mb 0.00 in0.0 mm 0.00 in0.0 mm 0.00 in0.0 mm
07:23 AM 75.0°F23.9°C -5537.2°C - 7.0 mph E11.3 kmh E 12.1 mph19.5 kmh 24.95 in844.9 mb 0.00 in0.0 mm 0.00 in0.0 mm 0.00 in0.0 mm
07:18 AM 75.0°F23.9°C -5537.2°C - 7.0 mph E11.3 kmh E 9.6 mph15.4 kmh 24.95 in844.9 mb 0.00 in0.0 mm 0.00 in0.0 mm 0.00 in0.0 mm
07:13 AM 75.0°F23.9°C -5537.2°C - 7.0 mph E11.3 kmh E 11.0 mph17.7 kmh 24.95 in844.9 mb 0.00 in0.0 mm 0.00 in0.0 mm 0.00 in0.0 mm
07:08 AM 75.2°F24.0°C -5537.2°C - 6.0 mph E9.7 kmh E 11.2 mph18.0 kmh 24.95 in844.9 mb 0.00 in0.0 mm 0.00 in0.0 mm 0.00 in0.0 mm
07:03 AM 75.0°F23.9°C -5537.2°C - 6.0 mph E9.7 kmh E 7.8 mph12.6 kmh 24.95 in844.9 mb 0.00 in0.0 mm 0.00 in0.0 mm 0.00 in0.0 mm
06:58 AM 75.4°F24.1°C -5537.2°C - 6.0 mph E9.7 kmh E 8.3 mph13.4 kmh 24.95 in844.9 mb 0.00 in0.0 mm 0.00 in0.0 mm 0.00 in0.0 mm
06:53 AM 75.4°F24.1°C -5537.2°C - 5.0 mph ENE8.0 kmh ENE 8.3 mph13.4 kmh 24.95 in844.9 mb 0.00 in0.0 mm 0.00 in0.0 mm 0.00 in0.0 mm
06:48 AM 75.0°F23.9°C -5537.2°C - 5.0 mph ENE8.0 kmh ENE 8.7 mph14.0 kmh 24.95 in844.9 mb 0.00 in0.0 mm 0.00 in0.0 mm 0.00 in0.0 mm
06:43 AM 75.0°F23.9°C -5537.2°C - 5.0 mph ENE8.0 kmh ENE 8.3 mph13.4 kmh 24.95 in844.9 mb 0.00 in0.0 mm 0.00 in0.0 mm 0.00 in0.0 mm
06:38 AM 74.8°F23.8°C -5537.2°C - 5.0 mph ENE8.0 kmh ENE 7.8 mph12.6 kmh 24.95 in844.9 mb 0.00 in0.0 mm 0.00 in0.0 mm 0.00 in0.0 mm
06:33 AM 74.8°F23.8°C -5537.2°C - 5.0 mph ENE8.0 kmh ENE 8.3 mph13.4 kmh 24.95 in844.9 mb 0.00 in0.0 mm 0.00 in0.0 mm 0.00 in0.0 mm
06:28 AM 74.7°F23.7°C -5537.2°C - 5.0 mph ENE8.0 kmh ENE 8.7 mph14.0 kmh 24.95 in844.9 mb 0.00 in0.0 mm 0.00 in0.0 mm 0.00 in0.0 mm
06:23 AM 73.9°F23.3°C -5537.2°C - 4.0 mph ENE6.4 kmh ENE 8.3 mph13.4 kmh 24.95 in844.9 mb 0.00 in0.0 mm 0.00 in0.0 mm 0.00 in0.0 mm
06:18 AM 73.6°F23.1°C -5537.2°C - 3.0 mph ENE4.8 kmh ENE 6.3 mph10.1 kmh 24.95 in844.9 mb 0.00 in0.0 mm 0.00 in0.0 mm 0.00 in0.0 mm
06:13 AM 73.4°F23.0°C -5537.2°C - 4.0 mph ENE6.4 kmh ENE 6.3 mph10.1 kmh 24.95 in844.9 mb 0.00 in0.0 mm 0.00 in0.0 mm 0.00 in0.0 mm
06:08 AM 73.0°F22.8°C -5537.2°C - 4.0 mph ENE6.4 kmh ENE 7.8 mph12.6 kmh 24.95 in844.9 mb 0.00 in0.0 mm 0.00 in0.0 mm 0.00 in0.0 mm
06:03 AM 72.9°F22.7°C -5537.2°C - 5.0 mph ENE8.0 kmh ENE 8.3 mph13.4 kmh 24.95 in844.9 mb 0.00 in0.0 mm 0.00 in0.0 mm 0.00 in0.0 mm
05:58 AM 71.8°F22.1°C -5537.2°C - 5.0 mph ENE8.0 kmh ENE 8.3 mph13.4 kmh 24.95 in844.9 mb 0.00 in0.0 mm 0.00 in0.0 mm 0.00 in0.0 mm
05:53 AM 71.2°F21.8°C -5537.2°C - 4.0 mph ENE6.4 kmh ENE 6.3 mph10.1 kmh 24.95 in844.9 mb 0.00 in0.0 mm 0.00 in0.0 mm 0.00 in0.0 mm
05:48 AM 70.7°F21.5°C -5537.2°C - 3.0 mph ENE4.8 kmh ENE 6.3 mph10.1 kmh 24.95 in844.9 mb 0.00 in0.0 mm 0.00 in0.0 mm 0.00 in0.0 mm
05:43 AM 70.3°F21.3°C -5537.2°C - 2.0 mph ENE3.2 kmh ENE 5.4 mph8.7 kmh 24.95 in844.9 mb 0.00 in0.0 mm 0.00 in0.0 mm 0.00 in0.0 mm
05:38 AM 69.8°F21.0°C -5537.2°C - 2.0 mph ENE3.2 kmh ENE 4.5 mph7.2 kmh 24.95 in844.9 mb 0.00 in0.0 mm 0.00 in0.0 mm 0.00 in0.0 mm
05:33 AM 69.6°F20.9°C -5537.2°C - 2.0 mph ENE3.2 kmh ENE 3.6 mph5.8 kmh 24.95 in844.9 mb 0.00 in0.0 mm 0.00 in0.0 mm 0.00 in0.0 mm
05:28 AM 70.3°F21.3°C -5537.2°C - 2.0 mph E3.2 kmh E 4.9 mph7.9 kmh 24.95 in844.9 mb 0.00 in0.0 mm 0.00 in0.0 mm 0.00 in0.0 mm
05:23 AM 70.7°F21.5°C -5537.2°C - 1.0 mph E1.6 kmh E 4.5 mph7.2 kmh 24.95 in844.9 mb 0.00 in0.0 mm 0.00 in0.0 mm 0.00 in0.0 mm
05:17 AM 71.6°F22.0°C -5537.2°C - 1.0 mph E1.6 kmh E 3.6 mph5.8 kmh 24.95 in844.9 mb 0.00 in0.0 mm 0.00 in0.0 mm 0.00 in0.0 mm
05:12 AM 72.1°F22.3°C -5537.2°C - 3.0 mph E4.8 kmh E 4.0 mph6.4 kmh 24.95 in844.9 mb 0.00 in0.0 mm 0.00 in0.0 mm 0.00 in0.0 mm
05:07 AM 72.7°F22.6°C -5537.2°C - 4.0 mph E6.4 kmh E 8.3 mph13.4 kmh 24.95 in844.9 mb 0.00 in0.0 mm 0.00 in0.0 mm 0.00 in0.0 mm
05:02 AM 72.7°F22.6°C -5537.2°C - 5.0 mph E8.0 kmh E 6.9 mph11.1 kmh 24.95 in844.9 mb 0.00 in0.0 mm 0.00 in0.0 mm 0.00 in0.0 mm
04:57 AM 72.9°F22.7°C -5537.2°C - 6.0 mph E9.7 kmh E 8.3 mph13.4 kmh 24.95 in844.9 mb 0.00 in0.0 mm 0.00 in0.0 mm 0.00 in0.0 mm
04:52 AM 73.6°F23.1°C -5537.2°C - 5.0 mph E8.0 kmh E 6.7 mph10.8 kmh 24.95 in844.9 mb 0.00 in0.0 mm 0.00 in0.0 mm 0.00 in0.0 mm
04:47 AM 74.8°F23.8°C -5537.2°C - 5.0 mph E8.0 kmh E 7.4 mph11.9 kmh 24.95 in844.9 mb 0.00 in0.0 mm 0.00 in0.0 mm 0.00 in0.0 mm
04:42 AM 75.9°F24.4°C -5537.2°C - 3.0 mph E4.8 kmh E 8.7 mph14.0 kmh 24.95 in844.9 mb 0.00 in0.0 mm 0.00 in0.0 mm 0.00 in0.0 mm
04:37 AM 77.0°F25.0°C -5537.2°C - 2.0 mph E3.2 kmh E 4.5 mph7.2 kmh 24.95 in844.9 mb 0.00 in0.0 mm 0.00 in0.0 mm 0.00 in0.0 mm
04:32 AM 77.4°F25.2°C -5537.2°C - 4.0 mph E6.4 kmh E 4.5 mph7.2 kmh 24.95 in844.9 mb 0.00 in0.0 mm 0.00 in0.0 mm 0.00 in0.0 mm
04:27 AM 77.9°F25.5°C -5537.2°C - 6.0 mph E9.7 kmh E 9.2 mph14.8 kmh 24.95 in844.9 mb 0.00 in0.0 mm 0.00 in0.0 mm 0.00 in0.0 mm
04:22 AM 78.6°F25.9°C -5537.2°C - 6.0 mph E9.7 kmh E 10.1 mph16.3 kmh 24.95 in844.9 mb 0.00 in0.0 mm 0.00 in0.0 mm 0.00 in0.0 mm
04:17 AM 78.1°F25.6°C -5537.2°C - 5.0 mph E8.0 kmh E 7.8 mph12.6 kmh 24.95 in844.9 mb 0.00 in0.0 mm 0.00 in0.0 mm 0.00 in0.0 mm
04:12 AM 79.5°F26.4°C -5537.2°C - 5.0 mph E8.0 kmh E 7.4 mph11.9 kmh 24.95 in844.9 mb 0.00 in0.0 mm 0.00 in0.0 mm 0.00 in0.0 mm
04:07 AM 79.7°F26.5°C -5537.2°C - 4.0 mph E6.4 kmh E 7.4 mph11.9 kmh 24.95 in844.9 mb 0.00 in0.0 mm 0.00 in0.0 mm 0.00 in0.0 mm
04:02 AM 78.4°F25.8°C -5537.2°C - 3.0 mph E4.8 kmh E 5.4 mph8.7 kmh 24.95 in844.9 mb 0.00 in0.0 mm 0.00 in0.0 mm 0.00 in0.0 mm
03:57 AM 79.2°F26.2°C -5537.2°C - 5.0 mph E8.0 kmh E 6.7 mph10.8 kmh 24.95 in844.9 mb 0.00 in0.0 mm 0.00 in0.0 mm 0.00 in0.0 mm
03:52 AM 79.3°F26.3°C -5537.2°C - 6.0 mph E9.7 kmh E 10.1 mph16.3 kmh 24.95 in844.9 mb 0.00 in0.0 mm 0.00 in0.0 mm 0.00 in0.0 mm
03:47 AM 79.5°F26.4°C -5537.2°C - 5.0 mph E8.0 kmh E 9.2 mph14.8 kmh 24.95 in844.9 mb 0.00 in0.0 mm 0.00 in0.0 mm 0.00 in0.0 mm
03:42 AM 78.8°F26.0°C -5537.2°C - 5.0 mph E8.0 kmh E 5.8 mph9.3 kmh 24.95 in844.9 mb 0.00 in0.0 mm 0.00 in0.0 mm 0.00 in0.0 mm
03:37 AM 79.0°F26.1°C -5537.2°C - 6.0 mph E9.7 kmh E 9.2 mph14.8 kmh 24.95 in844.9 mb 0.00 in0.0 mm 0.00 in0.0 mm 0.00 in0.0 mm
03:32 AM 79.2°F26.2°C -5537.2°C - 7.0 mph E11.3 kmh E 10.1 mph16.3 kmh 24.95 in844.9 mb 0.00 in0.0 mm 0.00 in0.0 mm 0.00 in0.0 mm
03:27 AM 79.0°F26.1°C -5537.2°C - 6.0 mph E9.7 kmh E 11.2 mph18.0 kmh 24.95 in844.9 mb 0.00 in0.0 mm 0.00 in0.0 mm 0.00 in0.0 mm
03:22 AM 78.8°F26.0°C -5537.2°C - 6.0 mph E9.7 kmh E 10.5 mph16.9 kmh 24.95 in844.9 mb 0.00 in0.0 mm 0.00 in0.0 mm 0.00 in0.0 mm
03:17 AM 79.0°F26.1°C -5537.2°C - 6.0 mph E9.7 kmh E 13.4 mph21.6 kmh 24.95 in844.9 mb 0.00 in0.0 mm 0.00 in0.0 mm 0.00 in0.0 mm
03:12 AM 78.3°F25.7°C -5537.2°C - 6.0 mph E9.7 kmh E 10.1 mph16.3 kmh 24.95 in844.9 mb 0.00 in0.0 mm 0.00 in0.0 mm 0.00 in0.0 mm
03:07 AM 77.7°F25.4°C -5537.2°C - 6.0 mph E9.7 kmh E 9.2 mph14.8 kmh 24.95 in844.9 mb 0.00 in0.0 mm 0.00 in0.0 mm 0.00 in0.0 mm
03:02 AM 78.3°F25.7°C -5537.2°C - 7.0 mph E11.3 kmh E 12.1 mph19.5 kmh 24.95 in844.9 mb 0.00 in0.0 mm 0.00 in0.0 mm 0.00 in0.0 mm
02:57 AM 77.7°F25.4°C -5537.2°C - 6.0 mph E9.7 kmh E 11.2 mph18.0 kmh 24.95 in844.9 mb 0.00 in0.0 mm 0.00 in0.0 mm 0.00 in0.0 mm
02:52 AM 75.9°F24.4°C -5537.2°C - 5.0 mph E8.0 kmh E 10.5 mph16.9 kmh 24.95 in844.9 mb 0.00 in0.0 mm 0.00 in0.0 mm 0.00 in0.0 mm
02:47 AM 73.4°F23.0°C -5537.2°C - 3.0 mph E4.8 kmh E 6.3 mph10.1 kmh 24.95 in844.9 mb 0.00 in0.0 mm 0.00 in0.0 mm 0.00 in0.0 mm
02:42 AM 72.7°F22.6°C -5537.2°C - 1.0 mph E1.6 kmh E 4.9 mph7.9 kmh 24.95 in844.9 mb 0.00 in0.0 mm 0.00 in0.0 mm 0.00 in0.0 mm
02:37 AM 72.5°F22.5°C -5537.2°C - 1.0 mph E1.6 kmh E 4.5 mph7.2 kmh 24.95 in844.9 mb 0.00 in0.0 mm 0.00 in0.0 mm 0.00 in0.0 mm
02:32 AM 72.9°F22.7°C -5537.2°C - 2.0 mph E3.2 kmh E 4.5 mph7.2 kmh 24.95 in844.9 mb 0.00 in0.0 mm 0.00 in0.0 mm 0.00 in0.0 mm
02:27 AM 73.6°F23.1°C -5537.2°C - 2.0 mph E3.2 kmh E 4.5 mph7.2 kmh 24.95 in844.9 mb 0.00 in0.0 mm 0.00 in0.0 mm 0.00 in0.0 mm
02:22 AM 73.2°F22.9°C -5537.2°C - 2.0 mph E3.2 kmh E 4.9 mph7.9 kmh 24.95 in844.9 mb 0.00 in0.0 mm 0.00 in0.0 mm 0.00 in0.0 mm
02:17 AM 74.8°F23.8°C -5537.2°C - 1.0 mph E1.6 kmh E 4.9 mph7.9 kmh 24.95 in844.9 mb 0.00 in0.0 mm 0.00 in0.0 mm 0.00 in0.0 mm
02:12 AM 75.0°F23.9°C -5537.2°C - 1.0 mph E1.6 kmh E 3.1 mph5.0 kmh 24.95 in844.9 mb 0.00 in0.0 mm 0.00 in0.0 mm 0.00 in0.0 mm
02:07 AM 74.8°F23.8°C -5537.2°C - 2.0 mph E3.2 kmh E 5.4 mph8.7 kmh 24.95 in844.9 mb 0.00 in0.0 mm 0.00 in0.0 mm 0.00 in0.0 mm
02:02 AM 73.4°F23.0°C -5537.2°C - 3.0 mph E4.8 kmh E 4.9 mph7.9 kmh 24.95 in844.9 mb 0.00 in0.0 mm 0.00 in0.0 mm 0.00 in0.0 mm
01:57 AM 73.6°F23.1°C -5537.2°C - 2.0 mph E3.2 kmh E 5.8 mph9.3 kmh 24.95 in844.9 mb 0.00 in0.0 mm 0.00 in0.0 mm 0.00 in0.0 mm
01:52 AM 73.8°F23.2°C -5537.2°C - 1.0 mph E1.6 kmh E 3.6 mph5.8 kmh 24.95 in844.9 mb 0.00 in0.0 mm 0.00 in0.0 mm 0.00 in0.0 mm
01:47 AM 74.5°F23.6°C -5537.2°C - 2.0 mph E3.2 kmh E 4.9 mph7.9 kmh 24.95 in844.9 mb 0.00 in0.0 mm 0.00 in0.0 mm 0.00 in0.0 mm
01:42 AM 75.6°F24.2°C -5537.2°C - 3.0 mph E4.8 kmh E 4.9 mph7.9 kmh 24.95 in844.9 mb 0.00 in0.0 mm 0.00 in0.0 mm 0.00 in0.0 mm
01:37 AM 76.6°F24.8°C -5537.2°C - 1.0 mph E1.6 kmh E 4.0 mph6.4 kmh 24.95 in844.9 mb 0.00 in0.0 mm 0.00 in0.0 mm 0.00 in0.0 mm
01:32 AM 76.8°F24.9°C -5537.2°C - Calm Calm 3.1 mph5.0 kmh 24.95 in844.9 mb 0.00 in0.0 mm 0.00 in0.0 mm 0.00 in0.0 mm
01:27 AM 76.6°F24.8°C -5537.2°C - Calm Calm 3.6 mph5.8 kmh 24.95 in844.9 mb 0.00 in0.0 mm 0.00 in0.0 mm 0.00 in0.0 mm
01:22 AM 77.5°F25.3°C -5537.2°C - Calm Calm 2.7 mph4.3 kmh 24.95 in844.9 mb 0.00 in0.0 mm 0.00 in0.0 mm 0.00 in0.0 mm
01:17 AM 78.3°F25.7°C -5537.2°C - 1.0 mph E1.6 kmh E 4.0 mph6.4 kmh 24.95 in844.9 mb 0.00 in0.0 mm 0.00 in0.0 mm 0.00 in0.0 mm
01:12 AM 78.8°F26.0°C -5537.2°C - 1.0 mph E1.6 kmh E 3.6 mph5.8 kmh 24.95 in844.9 mb 0.00 in0.0 mm 0.00 in0.0 mm 0.00 in0.0 mm
01:07 AM 78.8°F26.0°C -5537.2°C - 1.0 mph E1.6 kmh E 3.1 mph5.0 kmh 24.95 in844.9 mb 0.00 in0.0 mm 0.00 in0.0 mm 0.00 in0.0 mm
01:02 AM 79.3°F26.3°C -5537.2°C - 1.0 mph E1.6 kmh E 5.4 mph8.7 kmh 24.95 in844.9 mb 0.00 in0.0 mm 0.00 in0.0 mm 0.00 in0.0 mm
12:57 AM 80.1°F26.7°C -5537.2°C - Calm Calm 3.1 mph5.0 kmh 24.95 in844.9 mb 0.00 in0.0 mm 0.00 in0.0 mm 0.00 in0.0 mm
12:52 AM 79.9°F26.6°C -5537.2°C - Calm Calm 3.6 mph5.8 kmh 24.95 in844.9 mb 0.00 in0.0 mm 0.00 in0.0 mm 0.00 in0.0 mm
12:47 AM 79.3°F26.3°C -5537.2°C - Calm Calm 3.6 mph5.8 kmh 24.95 in844.9 mb 0.00 in0.0 mm 0.00 in0.0 mm 0.00 in0.0 mm
12:42 AM 79.5°F26.4°C -5537.2°C - 1.0 mph ENE1.6 kmh ENE 2.7 mph4.3 kmh 24.95 in844.9 mb 0.00 in0.0 mm 0.00 in0.0 mm 0.00 in0.0 mm
12:37 AM 79.2°F26.2°C -5537.2°C - 1.0 mph ENE1.6 kmh ENE 4.0 mph6.4 kmh 24.95 in844.9 mb 0.00 in0.0 mm 0.00 in0.0 mm 0.00 in0.0 mm
12:32 AM 79.2°F26.2°C -5537.2°C - 1.0 mph ENE1.6 kmh ENE 3.1 mph5.0 kmh 24.95 in844.9 mb 0.00 in0.0 mm 0.00 in0.0 mm 0.00 in0.0 mm
12:27 AM 79.3°F26.3°C -5537.2°C - 3.0 mph ENE4.8 kmh ENE 4.5 mph7.2 kmh 24.95 in844.9 mb 0.00 in0.0 mm 0.00 in0.0 mm 0.00 in0.0 mm
12:21 AM 79.3°F26.3°C -5537.2°C - 3.0 mph E4.8 kmh E 4.9 mph7.9 kmh 24.95 in844.9 mb 0.00 in0.0 mm 0.00 in0.0 mm 0.00 in0.0 mm
12:16 AM 82.0°F27.8°C -5537.2°C - 3.0 mph E4.8 kmh E 4.9 mph7.9 kmh 24.95 in844.9 mb 0.00 in0.0 mm 0.00 in0.0 mm 0.00 in0.0 mm
12:11 AM 81.9°F27.7°C -5537.2°C - 4.0 mph E6.4 kmh E 5.8 mph9.3 kmh 24.95 in844.9 mb 0.00 in0.0 mm 0.00 in0.0 mm 0.00 in0.0 mm
12:06 AM 81.3°F27.4°C -5537.2°C - 3.0 mph ENE4.8 kmh ENE 5.8 mph9.3 kmh 24.95 in844.9 mb 0.00 in0.0 mm 0.00 in0.0 mm 0.00 in0.0 mm
12:01 AM 82.2°F27.9°C -5537.2°C - 2.0 mph ENE3.2 kmh ENE 4.0 mph6.4 kmh 24.95 in844.9 mb 0.00 in0.0 mm 0.00 in0.0 mm 0.00 in0.0 mm